createdAt,value
2022-12-18T00:00:01.248Z,191.20
2022-12-18T00:05:05.105Z,55.20
2022-12-18T00:10:09.076Z,18.80
2022-12-18T00:15:11.970Z,12.20
2022-12-18T00:20:15.009Z,14.00
2022-12-18T00:25:17.965Z,19.40
2022-12-18T00:30:21.019Z,19.50
2022-12-18T00:35:23.970Z,16.70
2022-12-18T00:40:26.893Z,21.50
2022-12-18T00:45:32.264Z,24.80
2022-12-18T00:50:35.330Z,24.10
2022-12-18T00:55:42.362Z,10.40
2022-12-18T01:00:45.465Z,19.40
2022-12-18T01:05:48.742Z,23.60
2022-12-18T01:10:52.020Z,21.80
2022-12-18T01:15:54.962Z,18.50
2022-12-18T01:20:57.991Z,22.00
2022-12-18T01:26:08.223Z,16.70
2022-12-18T01:31:20.890Z,25.40
2022-12-18T01:36:36.554Z,17.30
2022-12-18T01:41:58.777Z,18.70
2022-12-18T01:47:01.964Z,18.20
2022-12-18T01:52:05.037Z,20.10
2022-12-18T01:57:08.361Z,10.90
2022-12-18T02:02:12.859Z,23.20
2022-12-18T02:07:15.841Z,22.40
2022-12-18T02:12:25.036Z,28.20
2022-12-18T02:18:03.751Z,26.70
2022-12-18T02:23:45.881Z,32.10
2022-12-18T02:28:57.499Z,28.70
2022-12-18T02:34:05.909Z,34.70
2022-12-18T02:39:13.626Z,71.10
2022-12-18T02:44:16.631Z,30.20
2022-12-18T02:49:58.679Z,24.60
2022-12-18T02:55:29.121Z,17.20
2022-12-18T03:00:41.989Z,20.90
2022-12-18T03:06:31.257Z,21.00
2022-12-18T03:11:58.897Z,41.50
2022-12-18T03:17:06.304Z,25.10
2022-12-18T03:22:11.637Z,18.20
2022-12-18T03:27:19.477Z,25.00
2022-12-18T03:32:42.365Z,34.00
2022-12-18T03:37:45.351Z,23.90
2022-12-18T03:42:59.945Z,27.60
2022-12-18T03:48:18.628Z,24.20
2022-12-18T03:54:00.190Z,28.10
2022-12-18T03:59:05.757Z,33.90
2022-12-18T04:04:12.292Z,24.90
2022-12-18T04:09:16.036Z,25.20
2022-12-18T04:14:20.221Z,28.10
2022-12-18T04:19:23.248Z,26.70
2022-12-18T04:24:26.655Z,23.90
2022-12-18T04:29:29.718Z,17.90
2022-12-18T04:34:33.197Z,21.70
2022-12-18T04:39:36.892Z,28.30
2022-12-18T04:44:39.835Z,27.60
2022-12-18T04:49:42.793Z,31.90
2022-12-18T04:54:45.722Z,23.20
2022-12-18T04:59:48.703Z,34.80
2022-12-18T05:04:51.668Z,45.00
2022-12-18T05:09:54.702Z,51.70
2022-12-18T05:14:57.618Z,31.50
2022-12-18T05:20:00.472Z,32.20
2022-12-18T05:25:03.554Z,38.10
2022-12-18T05:30:07.553Z,37.70
2022-12-18T05:35:12.318Z,47.80
2022-12-18T05:40:15.294Z,37.70
2022-12-18T05:45:18.742Z,35.10
2022-12-18T05:50:21.629Z,34.90
2022-12-18T05:55:24.612Z,48.20
2022-12-18T06:00:28.128Z,39.90
2022-12-18T06:05:38.264Z,36.70
2022-12-18T06:10:42.825Z,37.70
2022-12-18T06:15:45.991Z,42.70
2022-12-18T06:20:57.526Z,129.40
2022-12-18T06:26:08.856Z,55.60
2022-12-18T06:31:12.629Z,42.30
2022-12-18T06:36:15.800Z,49.30
2022-12-18T06:41:22.284Z,47.00
2022-12-18T06:46:25.516Z,57.70
2022-12-18T06:51:28.453Z,51.40
2022-12-18T06:56:32.140Z,34.80
2022-12-18T07:01:35.120Z,33.80
2022-12-18T07:06:38.159Z,54.90
2022-12-18T07:11:41.187Z,66.40
2022-12-18T07:16:44.198Z,42.00
2022-12-18T07:21:47.141Z,43.60
2022-12-18T07:26:50.078Z,106.00
2022-12-18T07:31:53.085Z,48.90
2022-12-18T07:36:56.025Z,44.00
2022-12-18T07:42:17.706Z,41.70
2022-12-18T07:47:20.733Z,72.20
2022-12-18T07:52:26.203Z,59.40
2022-12-18T08:02:52.591Z,52.90
2022-12-18T08:07:57.080Z,67.50
2022-12-18T08:13:04.679Z,43.00
2022-12-18T08:18:12.689Z,44.00
2022-12-18T08:23:16.941Z,57.00
2022-12-18T08:28:19.860Z,49.10
2022-12-18T08:33:22.863Z,37.00
2022-12-18T08:38:25.988Z,47.60
2022-12-18T08:43:48.124Z,55.00
2022-12-18T08:48:59.162Z,59.00
2022-12-18T08:54:02.175Z,73.20
2022-12-18T08:59:05.905Z,199.30
2022-12-18T09:04:11.089Z,138.50
2022-12-18T09:09:14.107Z,154.00
2022-12-18T09:14:17.084Z,173.80
2022-12-18T09:19:20.107Z,94.40
2022-12-18T09:24:23.007Z,96.00
2022-12-18T09:29:25.972Z,115.90
2022-12-18T09:34:28.964Z,63.00
2022-12-18T09:39:31.905Z,50.80
2022-12-18T09:44:45.748Z,99.10
2022-12-18T09:49:56.247Z,49.60
2022-12-18T09:55:11.909Z,55.30
2022-12-18T10:00:22.918Z,52.80
2022-12-18T10:05:58.274Z,60.00
2022-12-18T10:11:18.576Z,58.60
2022-12-18T10:16:55.585Z,62.60
2022-12-18T10:22:22.043Z,58.90
2022-12-18T10:27:29.954Z,61.40
2022-12-18T10:32:33.971Z,62.20
2022-12-18T10:37:36.901Z,57.10
2022-12-18T10:42:40.777Z,56.00
2022-12-18T10:47:48.146Z,63.60
2022-12-18T10:53:01.560Z,66.80
2022-12-18T10:58:28.081Z,75.90
2022-12-18T11:03:47.874Z,102.30
2022-12-18T11:09:06.563Z,71.50
2022-12-18T11:14:27.133Z,77.20
2022-12-18T11:19:39.892Z,123.60
2022-12-18T11:24:43.254Z,101.50
2022-12-18T11:29:46.891Z,113.40
2022-12-18T11:35:00.792Z,118.50
2022-12-18T11:40:37.843Z,114.20
2022-12-18T11:45:55.885Z,102.70
2022-12-18T11:51:02.887Z,88.50
2022-12-18T11:56:37.016Z,75.10
2022-12-18T12:02:14.385Z,67.20
2022-12-18T12:07:35.866Z,74.40
2022-12-18T12:13:24.660Z,65.00
2022-12-18T12:18:58.364Z,75.80
2022-12-18T12:24:25.942Z,75.00
2022-12-18T12:29:50.468Z,86.00
2022-12-18T12:35:12.280Z,84.20
2022-12-18T12:40:50.328Z,72.40
2022-12-18T12:46:20.921Z,71.80
2022-12-18T12:51:31.096Z,68.80
2022-12-18T12:56:51.871Z,79.70
2022-12-18T13:02:22.301Z,90.60
2022-12-18T13:07:59.630Z,127.90
2022-12-18T13:13:11.156Z,95.90
2022-12-18T13:18:21.487Z,142.90
2022-12-18T13:23:24.313Z,98.80
2022-12-18T13:28:46.437Z,153.90
2022-12-18T13:39:19.792Z,136.50
2022-12-18T13:44:42.763Z,70.80
2022-12-18T13:49:48.151Z,131.20
2022-12-18T13:54:58.913Z,139.00
2022-12-18T14:00:26.372Z,168.70
2022-12-18T14:05:38.751Z,107.50
2022-12-18T14:10:48.308Z,119.60
2022-12-18T14:15:53.270Z,91.40
2022-12-18T14:21:00.008Z,74.00
2022-12-18T14:26:20.780Z,69.90
2022-12-18T14:31:30.611Z,65.90
2022-12-18T14:36:33.557Z,86.90
2022-12-18T14:41:36.593Z,92.20
2022-12-18T14:46:43.718Z,59.50
2022-12-18T14:51:53.998Z,77.90
2022-12-18T14:57:23.830Z,83.00
2022-12-18T15:02:29.764Z,97.70
2022-12-18T15:07:52.809Z,90.80
2022-12-18T15:13:03.572Z,101.10
2022-12-18T15:18:09.895Z,121.90
2022-12-18T15:23:25.231Z,113.10
2022-12-18T15:28:34.918Z,57.30
2022-12-18T15:33:43.980Z,57.60
2022-12-18T15:38:52.297Z,81.30
2022-12-18T15:43:55.330Z,77.50
2022-12-18T15:49:02.728Z,61.10
2022-12-18T15:54:14.667Z,83.90
2022-12-18T15:59:21.117Z,64.60
2022-12-18T16:04:24.727Z,69.20
2022-12-18T16:09:27.751Z,65.40
2022-12-18T16:14:32.591Z,84.80
2022-12-18T16:19:35.666Z,56.00
2022-12-18T16:24:38.689Z,72.90
2022-12-18T16:29:41.688Z,41.40
2022-12-18T16:34:46.371Z,61.30
2022-12-18T16:39:49.301Z,65.80
2022-12-18T16:44:52.315Z,89.80
2022-12-18T16:49:55.375Z,69.20
2022-12-18T16:54:58.493Z,63.60
2022-12-18T17:00:05.600Z,55.30
2022-12-18T17:05:09.578Z,83.80
2022-12-18T17:10:12.606Z,70.50
2022-12-18T17:15:15.549Z,54.10
2022-12-18T17:20:19.443Z,47.80
2022-12-18T17:25:22.962Z,48.80
2022-12-18T17:30:27.457Z,74.90
2022-12-18T17:35:31.271Z,64.20
2022-12-18T17:40:34.213Z,54.30
2022-12-18T17:45:39.638Z,49.40
2022-12-18T17:50:42.581Z,46.70
2022-12-18T17:55:55.581Z,37.70
2022-12-18T18:00:58.639Z,60.00
2022-12-18T18:06:02.597Z,48.90
2022-12-18T18:11:31.503Z,53.40
2022-12-18T18:16:44.899Z,50.60
2022-12-18T18:21:51.301Z,55.40
2022-12-18T18:26:54.800Z,58.40
2022-12-18T18:31:59.312Z,55.10
2022-12-18T18:37:03.235Z,54.50
2022-12-18T18:42:06.359Z,48.60
2022-12-18T18:47:09.708Z,81.40
2022-12-18T18:52:12.870Z,118.90
2022-12-18T18:57:20.996Z,105.10
2022-12-18T19:02:24.722Z,237.50
2022-12-18T19:07:30.384Z,159.50
2022-12-18T19:12:53.841Z,127.40
2022-12-18T19:17:56.732Z,71.90
2022-12-18T19:23:00.299Z,74.20
2022-12-18T19:28:03.335Z,91.80
2022-12-18T19:33:34.554Z,64.60
2022-12-18T19:38:31.789Z,88.50
2022-12-18T19:43:38.129Z,90.00
2022-12-18T19:48:43.594Z,115.00
2022-12-18T19:53:47.903Z,115.10
2022-12-18T19:58:51.030Z,104.80
2022-12-18T20:03:55.951Z,75.10
2022-12-18T20:09:05.715Z,57.30
2022-12-18T20:14:13.182Z,78.60
2022-12-18T20:19:16.227Z,53.00
2022-12-18T20:24:27.432Z,55.40
2022-12-18T20:29:33.699Z,41.00
2022-12-18T20:34:37.757Z,44.20
2022-12-18T20:39:41.384Z,42.40
2022-12-18T20:44:45.868Z,60.90
2022-12-18T20:49:48.879Z,56.00
2022-12-18T20:54:51.879Z,55.40
2022-12-18T20:59:54.876Z,78.70
2022-12-18T21:04:57.960Z,96.60
2022-12-18T21:10:04.404Z,70.30
2022-12-18T21:15:10.899Z,69.20
2022-12-18T21:20:17.781Z,82.10
2022-12-18T21:25:21.878Z,78.70
2022-12-18T21:30:24.978Z,60.20
2022-12-18T21:35:27.979Z,59.30
2022-12-18T21:40:33.928Z,57.50
2022-12-18T21:45:37.090Z,55.20
2022-12-18T21:50:39.973Z,55.60
2022-12-18T21:55:42.843Z,69.60
2022-12-18T22:00:48.794Z,70.10
2022-12-18T22:06:04.082Z,66.60
2022-12-18T22:11:13.283Z,61.40
2022-12-18T22:16:16.619Z,71.00
2022-12-18T22:21:32.943Z,66.30
2022-12-18T22:26:40.175Z,82.60
2022-12-18T22:31:43.562Z,89.00
2022-12-18T22:36:48.780Z,48.90
2022-12-18T22:41:52.507Z,40.50
2022-12-18T22:47:05.646Z,45.90
2022-12-18T22:52:10.178Z,37.70
2022-12-18T22:57:13.186Z,40.00
2022-12-18T23:02:17.859Z,29.70
2022-12-18T23:07:21.431Z,51.20
2022-12-18T23:12:24.356Z,45.20
2022-12-18T23:17:28.559Z,47.80
2022-12-18T23:22:31.702Z,40.90
2022-12-18T23:27:34.694Z,56.70
2022-12-18T23:32:38.781Z,59.80
2022-12-18T23:37:58.770Z,60.50
2022-12-18T23:43:02.524Z,61.80
2022-12-18T23:48:05.437Z,49.80
2022-12-18T23:53:10.261Z,52.70
2022-12-18T23:58:20.785Z,43.60
